createdAt,value
2018-03-29T00:00:32.065Z,4.90
2018-03-29T00:01:32.137Z,4.93
2018-03-29T00:02:32.193Z,4.94
2018-03-29T00:03:32.309Z,4.96
2018-03-29T00:04:32.317Z,4.94
2018-03-29T00:05:32.377Z,4.94
2018-03-29T00:06:32.436Z,5.02
2018-03-29T00:07:32.501Z,4.94
2018-03-29T00:08:32.573Z,4.97
2018-03-29T00:09:32.769Z,4.94
2018-03-29T00:10:32.661Z,4.93
2018-03-29T00:11:32.753Z,4.97
2018-03-29T00:12:32.781Z,5.02
2018-03-29T00:13:32.885Z,5.04
2018-03-29T00:14:32.957Z,4.99
2018-03-29T00:15:32.977Z,4.90
2018-03-29T00:16:33.045Z,4.97
2018-03-29T00:17:33.098Z,4.94
2018-03-29T00:18:33.689Z,4.94
2018-03-29T00:19:33.213Z,4.92
2018-03-29T00:20:33.321Z,4.90
2018-03-29T00:21:33.338Z,4.90
2018-03-29T00:22:33.594Z,4.86
2018-03-29T00:23:33.473Z,4.90
2018-03-29T00:24:33.665Z,4.87
2018-03-29T00:25:33.570Z,4.89
2018-03-29T00:26:33.626Z,4.90
2018-03-29T00:27:33.707Z,4.86
2018-03-29T00:28:33.751Z,4.84
2018-03-29T00:29:33.946Z,4.89
2018-03-29T00:30:33.886Z,4.86
2018-03-29T00:31:33.950Z,4.84
2018-03-29T00:32:33.986Z,4.80
2018-03-29T00:33:34.054Z,4.90
2018-03-29T00:34:34.266Z,4.78
2018-03-29T00:35:34.178Z,4.86
2018-03-29T00:36:34.233Z,4.80
2018-03-29T00:37:34.302Z,4.87
2018-03-29T00:38:34.358Z,4.84
2018-03-29T00:39:34.438Z,4.82
2018-03-29T00:40:34.492Z,4.78
2018-03-29T00:41:34.526Z,4.82
2018-03-29T00:42:34.582Z,4.84
2018-03-29T00:43:34.646Z,4.84
2018-03-29T00:44:34.723Z,4.84
2018-03-29T00:45:34.781Z,4.92
2018-03-29T00:46:34.831Z,4.87
2018-03-29T00:47:34.882Z,4.89
2018-03-29T00:48:34.947Z,4.89
2018-03-29T00:49:35.027Z,4.92
2018-03-29T00:50:35.102Z,4.86
2018-03-29T00:51:35.307Z,4.97
2018-03-29T00:52:35.199Z,4.99
2018-03-29T00:53:35.247Z,4.97
2018-03-29T00:54:35.307Z,5.00
2018-03-29T00:55:35.471Z,4.99
2018-03-29T00:56:35.439Z,4.99
2018-03-29T00:57:35.485Z,4.99
2018-03-29T00:58:35.551Z,4.99
2018-03-29T00:59:35.603Z,4.99
2018-03-29T01:00:35.680Z,5.02
2018-03-29T01:01:35.748Z,5.02
2018-03-29T01:02:35.951Z,5.04
2018-03-29T01:03:35.845Z,5.04
2018-03-29T01:04:35.901Z,5.00
2018-03-29T01:05:35.991Z,5.02
2018-03-29T01:06:36.154Z,4.97
2018-03-29T01:07:36.084Z,4.93
2018-03-29T01:08:36.151Z,4.97
2018-03-29T01:09:36.280Z,5.00
2018-03-29T01:10:36.300Z,4.99
2018-03-29T01:11:36.331Z,5.02
2018-03-29T01:12:36.391Z,5.04
2018-03-29T01:13:36.449Z,4.97
2018-03-29T01:14:36.511Z,5.04
2018-03-29T01:15:36.572Z,4.93
2018-03-29T01:16:36.773Z,5.04
2018-03-29T01:17:36.698Z,5.04
2018-03-29T01:18:36.956Z,4.94
2018-03-29T01:19:36.803Z,5.04
2018-03-29T01:20:36.876Z,5.00
2018-03-29T01:21:36.931Z,4.99
2018-03-29T01:22:36.988Z,5.02
2018-03-29T01:23:37.064Z,5.02
2018-03-29T01:24:37.285Z,4.97
2018-03-29T01:25:37.188Z,5.04
2018-03-29T01:26:37.234Z,5.00
2018-03-29T01:27:37.288Z,5.04
2018-03-29T01:28:37.404Z,5.02
2018-03-29T01:29:37.438Z,4.99
2018-03-29T01:30:37.469Z,4.99
2018-03-29T01:31:37.596Z,4.97
2018-03-29T01:32:37.596Z,4.96
2018-03-29T01:33:37.677Z,4.99
2018-03-29T01:34:37.713Z,4.93
2018-03-29T01:35:37.795Z,4.93
2018-03-29T01:36:37.833Z,4.87
2018-03-29T01:37:37.885Z,4.90
2018-03-29T01:38:38.121Z,4.94
2018-03-29T01:39:38.012Z,4.94
2018-03-29T01:40:38.074Z,4.86
2018-03-29T01:41:38.137Z,4.97
2018-03-29T01:42:38.213Z,4.97
2018-03-29T01:43:38.245Z,4.96
2018-03-29T01:44:38.309Z,4.93
2018-03-29T01:45:38.369Z,4.90
2018-03-29T01:46:38.429Z,4.97
2018-03-29T01:47:38.485Z,4.93
2018-03-29T01:48:38.545Z,4.93
2018-03-29T01:49:38.609Z,5.07
2018-03-29T01:50:38.709Z,5.00
2018-03-29T01:51:38.730Z,4.96
2018-03-29T01:52:38.781Z,4.96
2018-03-29T01:53:38.845Z,4.99
2018-03-29T01:54:38.905Z,5.04
2018-03-29T01:55:38.969Z,4.99
2018-03-29T01:56:39.066Z,4.97
2018-03-29T01:57:39.133Z,4.99
2018-03-29T01:58:39.170Z,4.93
2018-03-29T01:59:39.210Z,5.02
2018-03-29T02:00:39.303Z,4.90
2018-03-29T02:01:39.321Z,4.94
2018-03-29T02:02:39.386Z,4.93
2018-03-29T02:03:39.446Z,4.96
2018-03-29T02:04:39.504Z,4.94
2018-03-29T02:05:39.569Z,4.99
2018-03-29T02:06:39.630Z,5.04
2018-03-29T02:07:39.686Z,4.96
2018-03-29T02:08:39.746Z,5.00
2018-03-29T02:09:39.813Z,4.99
2018-03-29T02:10:40.762Z,5.04
2018-03-29T02:11:40.182Z,4.99
2018-03-29T02:12:40.058Z,4.97
2018-03-29T02:13:40.046Z,5.02
2018-03-29T02:14:40.142Z,5.02
2018-03-29T02:15:40.358Z,5.07
2018-03-29T02:16:40.226Z,5.00
2018-03-29T02:17:40.286Z,5.02
2018-03-29T02:18:40.366Z,4.96
2018-03-29T02:19:40.446Z,4.99
2018-03-29T02:20:40.499Z,5.07
2018-03-29T02:21:40.534Z,5.00
2018-03-29T02:22:40.620Z,5.02
2018-03-29T02:23:40.649Z,5.00
2018-03-29T02:24:40.703Z,5.02
2018-03-29T02:25:40.775Z,5.07
2018-03-29T02:26:40.834Z,5.11
2018-03-29T02:27:40.891Z,5.11
2018-03-29T02:28:40.943Z,5.11
2018-03-29T02:29:41.002Z,5.10
2018-03-29T02:30:41.071Z,5.07
2018-03-29T02:31:41.231Z,5.05
2018-03-29T02:32:41.192Z,5.07
2018-03-29T02:33:41.247Z,5.07
2018-03-29T02:34:41.306Z,5.12
2018-03-29T02:35:41.368Z,5.04
2018-03-29T02:36:41.433Z,4.97
2018-03-29T02:37:41.491Z,5.10
2018-03-29T02:38:41.543Z,5.12
2018-03-29T02:39:41.612Z,5.12
2018-03-29T02:40:41.663Z,5.05
2018-03-29T02:41:41.735Z,5.15
2018-03-29T02:42:41.791Z,5.04
2018-03-29T02:43:41.843Z,5.07
2018-03-29T02:44:41.907Z,5.08
2018-03-29T02:45:41.968Z,5.12
2018-03-29T02:46:42.106Z,5.04
2018-03-29T02:47:42.098Z,5.07
2018-03-29T02:48:42.144Z,5.08
2018-03-29T02:49:42.205Z,5.08
2018-03-29T02:50:42.268Z,5.12
2018-03-29T02:51:42.348Z,5.18
2018-03-29T02:52:42.393Z,5.20
2018-03-29T02:53:42.485Z,5.15
2018-03-29T02:54:42.503Z,5.12
2018-03-29T02:55:42.586Z,5.21
2018-03-29T02:56:42.632Z,5.18
2018-03-29T02:57:42.704Z,5.14
2018-03-29T02:58:42.748Z,5.12
2018-03-29T02:59:42.804Z,5.18
2018-03-29T03:00:42.892Z,5.14
2018-03-29T03:01:42.936Z,5.18
2018-03-29T03:02:42.987Z,5.20
2018-03-29T03:03:43.045Z,5.10
2018-03-29T03:04:43.103Z,5.14
2018-03-29T03:05:43.174Z,5.14
2018-03-29T03:06:43.352Z,5.07
2018-03-29T03:07:43.284Z,5.14
2018-03-29T03:08:43.352Z,5.10
2018-03-29T03:09:43.418Z,5.12
2018-03-29T03:10:43.472Z,5.08
2018-03-29T03:11:43.533Z,5.14
2018-03-29T03:12:43.588Z,5.15
2018-03-29T03:13:43.644Z,5.14
2018-03-29T03:14:43.704Z,5.17
2018-03-29T03:15:43.764Z,5.15
2018-03-29T03:16:43.884Z,5.15
2018-03-29T03:17:43.900Z,5.17
2018-03-29T03:18:43.944Z,5.14
2018-03-29T03:19:44.005Z,5.23
2018-03-29T03:20:44.068Z,5.14
2018-03-29T03:21:44.169Z,5.14
2018-03-29T03:22:44.184Z,5.15
2018-03-29T03:23:44.248Z,5.20
2018-03-29T03:24:44.305Z,5.18
2018-03-29T03:25:44.364Z,5.25
2018-03-29T03:26:44.428Z,5.21
2018-03-29T03:27:44.497Z,5.10
2018-03-29T03:28:44.549Z,5.21
2018-03-29T03:29:44.623Z,5.20
2018-03-29T03:30:44.674Z,5.25
2018-03-29T03:31:44.733Z,5.23
2018-03-29T03:32:44.793Z,5.20
2018-03-29T03:33:44.900Z,5.18
2018-03-29T03:34:44.921Z,5.21
2018-03-29T03:35:44.969Z,5.18
2018-03-29T03:36:45.031Z,5.07
2018-03-29T03:37:45.093Z,5.23
2018-03-29T03:38:45.173Z,5.08
2018-03-29T03:39:45.245Z,5.07
2018-03-29T03:40:45.283Z,5.02
2018-03-29T03:41:45.489Z,4.97
2018-03-29T03:42:45.385Z,5.04
2018-03-29T03:43:45.445Z,5.02
2018-03-29T03:44:45.510Z,4.99
2018-03-29T03:45:45.593Z,4.96
2018-03-29T03:46:45.638Z,4.97
2018-03-29T03:47:45.702Z,5.02
2018-03-29T03:48:45.750Z,4.94
2018-03-29T03:49:45.872Z,4.99
2018-03-29T03:50:45.874Z,5.02
2018-03-29T03:51:45.938Z,4.97
2018-03-29T03:52:46.045Z,4.96
2018-03-29T03:53:46.059Z,4.99
2018-03-29T03:54:46.109Z,5.02
2018-03-29T03:55:46.169Z,5.04
2018-03-29T03:56:46.258Z,5.02
2018-03-29T03:57:46.298Z,4.99
2018-03-29T03:58:46.346Z,4.97
2018-03-29T03:59:46.413Z,5.02
2018-03-29T04:00:46.470Z,5.00
2018-03-29T04:01:46.542Z,5.10
2018-03-29T04:02:46.594Z,5.07
2018-03-29T04:03:46.650Z,5.17
2018-03-29T04:04:46.726Z,5.08
2018-03-29T04:05:46.774Z,5.07
2018-03-29T04:06:46.838Z,5.08
2018-03-29T04:07:46.898Z,5.04
2018-03-29T04:08:46.954Z,5.12
2018-03-29T04:09:47.010Z,5.20
2018-03-29T04:10:47.074Z,5.17
2018-03-29T04:11:47.162Z,5.17
2018-03-29T04:12:47.191Z,5.23
2018-03-29T04:13:47.295Z,5.18
2018-03-29T04:14:47.311Z,5.23
2018-03-29T04:15:47.371Z,5.11
2018-03-29T04:16:47.439Z,5.14
2018-03-29T04:17:47.503Z,5.18
2018-03-29T04:18:47.583Z,5.20
2018-03-29T04:19:47.611Z,5.18
2018-03-29T04:20:47.675Z,5.17
2018-03-29T04:21:47.744Z,5.08
2018-03-29T04:22:47.798Z,5.07
2018-03-29T04:23:47.859Z,5.04
2018-03-29T04:24:47.911Z,5.14
2018-03-29T04:25:47.983Z,5.07
2018-03-29T04:26:48.042Z,4.99
2018-03-29T04:27:48.135Z,5.00
2018-03-29T04:28:48.155Z,4.99
2018-03-29T04:29:48.215Z,4.99
2018-03-29T04:30:48.275Z,4.99
2018-03-29T04:31:48.587Z,4.99
2018-03-29T04:32:48.443Z,5.02
2018-03-29T04:33:48.679Z,5.07
2018-03-29T04:34:48.519Z,4.99
2018-03-29T04:35:48.575Z,4.99
2018-03-29T04:36:48.643Z,4.99
2018-03-29T04:37:48.703Z,5.00
2018-03-29T04:38:48.757Z,5.04
2018-03-29T04:39:48.848Z,4.97
2018-03-29T04:40:48.900Z,5.02
2018-03-29T04:41:48.948Z,4.97
2018-03-29T04:42:49.003Z,5.02
2018-03-29T04:43:49.060Z,5.04
2018-03-29T04:44:49.156Z,5.05
2018-03-29T04:45:49.216Z,5.12
2018-03-29T04:46:49.252Z,5.08
2018-03-29T04:47:49.300Z,5.07
2018-03-29T04:48:49.359Z,5.04
2018-03-29T04:49:49.424Z,5.15
2018-03-29T04:50:49.480Z,5.07
2018-03-29T04:51:49.556Z,5.11
2018-03-29T04:52:49.608Z,5.10
2018-03-29T04:53:49.668Z,5.05
2018-03-29T04:54:49.726Z,5.17
2018-03-29T04:55:49.780Z,5.14
2018-03-29T04:56:49.852Z,5.23
2018-03-29T04:57:49.909Z,5.23
2018-03-29T04:58:49.984Z,5.28
2018-03-29T04:59:50.024Z,5.20
2018-03-29T05:00:51.910Z,5.25
2018-03-29T05:01:50.200Z,5.21
2018-03-29T05:02:50.220Z,5.30
2018-03-29T05:03:50.268Z,5.32
2018-03-29T05:04:50.337Z,5.25
2018-03-29T05:05:50.392Z,5.33
2018-03-29T05:06:50.473Z,5.36
2018-03-29T05:07:50.513Z,5.35
2018-03-29T05:08:50.565Z,5.33
2018-03-29T05:09:50.629Z,5.29
2018-03-29T05:10:50.684Z,5.35
2018-03-29T05:11:50.761Z,5.25
2018-03-29T05:12:50.873Z,5.36
2018-03-29T05:13:50.888Z,5.30
2018-03-29T05:14:50.928Z,5.35
2018-03-29T05:15:50.989Z,5.29
2018-03-29T05:16:51.065Z,5.28
2018-03-29T05:17:51.169Z,5.29
2018-03-29T05:18:51.186Z,5.29
2018-03-29T05:19:51.233Z,5.33
2018-03-29T05:20:51.293Z,5.29
2018-03-29T05:21:51.358Z,5.26
2018-03-29T05:22:51.421Z,5.30
2018-03-29T05:23:51.473Z,5.32
2018-03-29T05:24:51.529Z,5.29
2018-03-29T05:25:51.590Z,5.30
2018-03-29T05:26:51.662Z,5.33
2018-03-29T05:27:51.727Z,5.33
2018-03-29T05:28:51.769Z,5.38
2018-03-29T05:29:51.834Z,5.30
2018-03-29T05:30:51.894Z,5.35
2018-03-29T05:31:51.979Z,5.28
2018-03-29T05:32:52.016Z,5.36
2018-03-29T05:33:52.078Z,5.29
2018-03-29T05:34:52.133Z,5.29
2018-03-29T05:35:52.202Z,5.28
2018-03-29T05:36:52.737Z,5.33
2018-03-29T05:37:52.318Z,5.32
2018-03-29T05:38:52.382Z,5.29
2018-03-29T05:39:52.434Z,5.39
2018-03-29T05:40:52.522Z,5.33
2018-03-29T05:41:52.558Z,5.30
2018-03-29T05:42:52.846Z,5.36
2018-03-29T05:43:52.682Z,5.35
2018-03-29T05:44:52.738Z,5.35
2018-03-29T05:45:52.798Z,5.32
2018-03-29T05:46:52.860Z,5.41
2018-03-29T05:47:52.932Z,5.38
2018-03-29T05:48:52.990Z,5.38
2018-03-29T05:49:53.094Z,5.41
2018-03-29T05:50:53.110Z,5.46
2018-03-29T05:51:53.158Z,5.36
2018-03-29T05:52:53.350Z,5.36
2018-03-29T05:53:53.286Z,5.50
2018-03-29T05:54:53.342Z,5.56
2018-03-29T05:55:53.415Z,5.54
2018-03-29T05:56:53.579Z,5.56
2018-03-29T05:57:55.343Z,5.54
2018-03-29T05:58:55.343Z,5.54
2018-03-29T05:59:53.650Z,5.61
2018-03-29T06:00:53.703Z,5.57
2018-03-29T06:01:53.769Z,5.57
2018-03-29T06:02:53.823Z,5.59
2018-03-29T06:03:54.287Z,5.57
2018-03-29T06:04:53.947Z,5.56
2018-03-29T06:05:54.007Z,5.53
2018-03-29T06:06:54.067Z,5.61
2018-03-29T06:07:54.126Z,5.56
2018-03-29T06:08:54.244Z,5.62
2018-03-29T06:09:54.327Z,5.56
2018-03-29T06:10:54.311Z,5.51
2018-03-29T06:11:54.379Z,5.54
2018-03-29T06:12:54.474Z,5.54
2018-03-29T06:13:54.496Z,5.56
2018-03-29T06:14:54.560Z,5.36
2018-03-29T06:15:54.655Z,5.38
2018-03-29T06:16:54.672Z,5.41
2018-03-29T06:17:54.732Z,5.38
2018-03-29T06:18:54.791Z,5.32
2018-03-29T06:19:54.887Z,5.35
2018-03-29T06:20:54.929Z,5.32
2018-03-29T06:21:54.980Z,5.33
2018-03-29T06:22:55.036Z,5.33
2018-03-29T06:23:55.096Z,5.35
2018-03-29T06:24:55.156Z,5.30
2018-03-29T06:25:55.384Z,5.33
2018-03-29T06:26:55.276Z,5.36
2018-03-29T06:27:55.337Z,5.36
2018-03-29T06:28:55.404Z,5.33
2018-03-29T06:29:55.456Z,5.39
2018-03-29T06:30:55.636Z,5.35
2018-03-29T06:31:55.588Z,5.35
2018-03-29T06:32:55.647Z,5.33
2018-03-29T06:33:55.708Z,5.35
2018-03-29T06:34:55.761Z,5.35
2018-03-29T06:35:55.860Z,5.35
2018-03-29T06:36:55.892Z,5.47
2018-03-29T06:37:55.940Z,5.48
2018-03-29T06:38:56.004Z,5.47
2018-03-29T06:39:56.065Z,5.46
2018-03-29T06:40:56.297Z,5.53
2018-03-29T06:41:56.188Z,5.51
2018-03-29T06:42:56.244Z,5.56
2018-03-29T06:43:56.305Z,5.53
2018-03-29T06:44:56.372Z,5.51
2018-03-29T06:45:56.441Z,5.61
2018-03-29T06:46:56.511Z,5.64
2018-03-29T06:47:56.549Z,5.66
2018-03-29T06:48:56.609Z,5.73
2018-03-29T06:49:56.673Z,5.73
2018-03-29T06:50:56.737Z,5.72
2018-03-29T06:51:56.793Z,5.80
2018-03-29T06:52:56.861Z,5.87
2018-03-29T06:53:56.909Z,5.76
2018-03-29T06:54:56.965Z,5.80
2018-03-29T06:55:57.093Z,5.83
2018-03-29T06:56:57.099Z,5.87
2018-03-29T06:57:57.149Z,5.97
2018-03-29T06:58:57.213Z,5.94
2018-03-29T06:59:57.294Z,5.93
2018-03-29T07:00:57.386Z,5.97
2018-03-29T07:01:57.389Z,5.94
2018-03-29T07:02:57.452Z,5.98
2018-03-29T07:03:57.512Z,5.98
2018-03-29T07:04:57.574Z,5.98
2018-03-29T07:05:57.642Z,5.93
2018-03-29T07:06:57.698Z,5.98
2018-03-29T07:07:57.752Z,5.93
2018-03-29T07:08:57.819Z,5.93
2018-03-29T07:09:57.873Z,5.97
2018-03-29T07:10:57.942Z,5.93
2018-03-29T07:11:58.001Z,5.98
2018-03-29T07:12:58.054Z,5.94
2018-03-29T07:13:58.117Z,5.89
2018-03-29T07:14:58.229Z,5.90
2018-03-29T07:15:59.518Z,6.05
2018-03-29T07:16:58.299Z,6.04
2018-03-29T07:17:58.494Z,6.16
2018-03-29T07:18:59.330Z,6.14
2018-03-29T07:19:59.342Z,6.16
2018-03-29T07:20:58.566Z,6.19
2018-03-29T07:21:58.609Z,6.31
2018-03-29T07:22:58.686Z,6.22
2018-03-29T07:23:58.714Z,6.41
2018-03-29T07:24:58.779Z,6.38
2018-03-29T07:25:58.887Z,6.27
2018-03-29T07:26:58.958Z,6.20
2018-03-29T07:27:58.990Z,6.24
2018-03-29T07:28:59.042Z,6.28
2018-03-29T07:29:59.131Z,6.26
2018-03-29T07:30:59.263Z,6.24
2018-03-29T07:31:59.210Z,6.22
2018-03-29T07:32:59.267Z,6.22
2018-03-29T07:33:59.327Z,6.35
2018-03-29T07:34:59.386Z,6.24
2018-03-29T07:35:59.471Z,6.31
2018-03-29T07:36:59.590Z,6.35
2018-03-29T07:37:59.630Z,6.39
2018-03-29T07:38:59.627Z,6.36
2018-03-29T07:39:59.724Z,6.38
2018-03-29T07:40:59.763Z,6.36
2018-03-29T07:41:59.909Z,6.44
2018-03-29T07:42:59.943Z,6.36
2018-03-29T07:43:59.931Z,6.42
2018-03-29T07:44:59.995Z,6.46
2018-03-29T07:46:00.064Z,6.49
2018-03-29T07:47:00.531Z,6.49
2018-03-29T07:48:00.171Z,6.51
2018-03-29T07:49:00.239Z,6.54
2018-03-29T07:50:00.299Z,6.48
2018-03-29T07:51:00.559Z,6.57
2018-03-29T07:52:00.508Z,6.63
2018-03-29T07:53:00.484Z,6.74
2018-03-29T07:54:00.539Z,6.84
2018-03-29T07:55:00.644Z,6.82
2018-03-29T07:56:00.719Z,6.84
2018-03-29T07:57:00.756Z,6.87
2018-03-29T07:58:00.780Z,6.95
2018-03-29T07:59:00.863Z,7.10
2018-03-29T08:00:00.908Z,7.14
2018-03-29T08:01:00.995Z,7.21
2018-03-29T08:02:01.036Z,7.18
2018-03-29T08:03:01.124Z,7.31
2018-03-29T08:04:01.164Z,7.43
2018-03-29T08:05:01.240Z,7.53
2018-03-29T08:06:01.268Z,7.57
2018-03-29T08:07:01.396Z,7.58
2018-03-29T08:08:01.403Z,7.47
2018-03-29T08:09:01.484Z,7.40
2018-03-29T08:10:01.536Z,7.45
2018-03-29T08:11:01.614Z,7.43
2018-03-29T08:12:01.660Z,7.48
2018-03-29T08:13:01.713Z,7.36
2018-03-29T08:14:01.897Z,7.32
2018-03-29T08:15:01.836Z,7.40
2018-03-29T08:16:01.973Z,7.42
2018-03-29T08:17:02.009Z,7.33
2018-03-29T08:18:02.068Z,7.29
2018-03-29T08:19:02.113Z,7.39
2018-03-29T08:20:02.136Z,7.36
2018-03-29T08:21:02.188Z,7.33
2018-03-29T08:22:02.393Z,7.38
2018-03-29T08:23:02.316Z,7.35
2018-03-29T08:24:02.468Z,7.23
2018-03-29T08:25:02.521Z,7.29
2018-03-29T08:26:02.565Z,7.32
2018-03-29T08:27:02.693Z,7.33
2018-03-29T08:28:02.697Z,7.39
2018-03-29T08:29:02.685Z,7.36
2018-03-29T08:30:02.765Z,7.50
2018-03-29T08:31:02.806Z,7.47
2018-03-29T08:32:02.913Z,7.57
2018-03-29T08:33:03.876Z,7.63
2018-03-29T08:34:03.069Z,7.70
2018-03-29T08:35:03.106Z,7.72
2018-03-29T08:36:03.221Z,7.75
2018-03-29T08:37:03.593Z,7.72
2018-03-29T08:38:03.649Z,7.70
2018-03-29T08:39:03.289Z,7.72
2018-03-29T08:40:03.382Z,7.75
2018-03-29T08:41:03.897Z,7.73
2018-03-29T08:42:03.501Z,7.67
2018-03-29T08:43:03.833Z,7.67
2018-03-29T08:44:03.617Z,7.67
2018-03-29T08:45:03.673Z,7.58
2018-03-29T08:46:03.730Z,7.58
2018-03-29T08:47:03.849Z,7.66
2018-03-29T08:48:04.148Z,7.70
2018-03-29T08:49:04.198Z,7.73
2018-03-29T08:50:03.990Z,7.83
2018-03-29T08:51:04.037Z,7.90
2018-03-29T08:52:04.250Z,8.01
2018-03-29T08:53:04.814Z,8.10
2018-03-29T08:54:04.218Z,8.18
2018-03-29T08:55:04.358Z,8.10
2018-03-29T08:56:04.354Z,8.30
2018-03-29T08:57:04.461Z,8.28
2018-03-29T08:58:04.498Z,8.34
2018-03-29T08:59:04.598Z,8.33
2018-03-29T09:00:04.606Z,8.34
2018-03-29T09:01:04.670Z,8.31
2018-03-29T09:02:04.726Z,8.28
2018-03-29T09:03:04.808Z,8.41
2018-03-29T09:04:04.847Z,8.44
2018-03-29T09:05:04.898Z,8.52
2018-03-29T09:06:04.955Z,8.55
2018-03-29T09:07:05.024Z,8.51
2018-03-29T09:08:05.075Z,8.64
2018-03-29T09:09:05.171Z,8.66
2018-03-29T09:10:05.195Z,8.70
2018-03-29T09:11:05.254Z,8.66
2018-03-29T09:12:05.318Z,8.52
2018-03-29T09:13:05.379Z,8.53
2018-03-29T09:14:05.454Z,8.56
2018-03-29T09:15:05.515Z,8.63
2018-03-29T09:16:05.587Z,8.73
2018-03-29T09:17:05.633Z,8.63
2018-03-29T09:18:05.699Z,8.70
2018-03-29T09:19:05.783Z,8.81
2018-03-29T09:20:05.851Z,9.00
2018-03-29T09:21:05.913Z,8.94
2018-03-29T09:22:05.971Z,8.87
2018-03-29T09:23:06.008Z,8.94
2018-03-29T09:24:06.083Z,9.08
2018-03-29T09:25:06.139Z,9.18
2018-03-29T09:26:06.195Z,9.34
2018-03-29T09:27:06.311Z,9.36
2018-03-29T09:28:06.319Z,9.56
2018-03-29T09:29:06.384Z,9.54
2018-03-29T09:30:06.443Z,9.80
2018-03-29T09:31:06.499Z,9.84
2018-03-29T09:32:06.559Z,9.79
2018-03-29T09:33:06.627Z,9.77
2018-03-29T09:34:06.720Z,9.73
2018-03-29T09:35:06.768Z,9.56
2018-03-29T09:36:06.840Z,9.47
2018-03-29T09:37:06.880Z,9.37
2018-03-29T09:38:06.936Z,9.40
2018-03-29T09:39:07.040Z,9.47
2018-03-29T09:40:07.068Z,9.62
2018-03-29T09:41:07.132Z,9.68
2018-03-29T09:42:07.195Z,9.86
2018-03-29T09:43:07.275Z,9.86
2018-03-29T09:44:07.362Z,9.79
2018-03-29T09:45:07.380Z,9.86
2018-03-29T09:46:07.439Z,9.89
2018-03-29T09:47:07.504Z,9.76
2018-03-29T09:48:07.556Z,9.94
2018-03-29T09:49:07.648Z,9.80
2018-03-29T09:50:07.700Z,9.77
2018-03-29T09:51:07.764Z,9.84
2018-03-29T09:52:07.876Z,10.13
2018-03-29T09:53:07.881Z,10.28
2018-03-29T09:54:08.004Z,10.22
2018-03-29T09:55:08.017Z,10.49
2018-03-29T09:56:08.068Z,10.46
2018-03-29T09:57:08.144Z,10.37
2018-03-29T09:58:08.192Z,10.51
2018-03-29T09:59:08.292Z,11.17
2018-03-29T10:00:08.326Z,11.51
2018-03-29T10:01:08.380Z,11.94
2018-03-29T10:02:08.440Z,12.32
2018-03-29T10:03:08.504Z,12.46
2018-03-29T10:04:08.572Z,12.17
2018-03-29T10:05:08.645Z,12.21
2018-03-29T10:06:08.701Z,11.69
2018-03-29T10:07:08.767Z,11.97
2018-03-29T10:08:08.820Z,12.00
2018-03-29T10:09:08.893Z,12.04
2018-03-29T10:10:08.959Z,12.42
2018-03-29T10:11:09.012Z,12.03
2018-03-29T10:12:09.111Z,11.70
2018-03-29T10:13:09.136Z,11.23
2018-03-29T10:14:09.217Z,10.79
2018-03-29T10:15:09.267Z,10.44
2018-03-29T10:16:09.333Z,10.19
2018-03-29T10:17:10.349Z,9.95
2018-03-29T10:18:09.465Z,9.89
2018-03-29T10:19:09.530Z,9.76
2018-03-29T10:20:09.589Z,9.99
2018-03-29T10:21:09.645Z,10.49
2018-03-29T10:22:09.713Z,10.74
2018-03-29T10:23:09.782Z,10.74
2018-03-29T10:24:09.901Z,10.53
2018-03-29T10:25:09.917Z,10.61
2018-03-29T10:26:09.969Z,10.37
2018-03-29T10:27:10.034Z,10.31
2018-03-29T10:28:10.094Z,10.23
2018-03-29T10:29:10.214Z,10.35
2018-03-29T10:30:10.256Z,10.46
2018-03-29T10:31:10.334Z,11.12
2018-03-29T10:32:10.350Z,11.33
2018-03-29T10:33:10.409Z,11.47
2018-03-29T10:34:10.541Z,11.32
2018-03-29T10:35:10.550Z,11.37
2018-03-29T10:36:10.601Z,11.50
2018-03-29T10:37:10.662Z,11.30
2018-03-29T10:38:10.726Z,11.51
2018-03-29T10:39:10.798Z,11.62
2018-03-29T10:40:10.866Z,11.52
2018-03-29T10:41:10.927Z,11.72
2018-03-29T10:42:10.982Z,11.91
2018-03-29T10:43:11.046Z,11.75
2018-03-29T10:44:11.414Z,11.43
2018-03-29T10:45:11.182Z,11.50
2018-03-29T10:46:11.242Z,11.48
2018-03-29T10:47:11.311Z,11.77
2018-03-29T10:48:11.374Z,11.80
2018-03-29T10:49:11.499Z,11.86
2018-03-29T10:50:11.504Z,11.95
2018-03-29T10:51:12.355Z,11.95
2018-03-29T10:52:11.643Z,11.90
2018-03-29T10:53:11.686Z,12.06
2018-03-29T10:54:11.762Z,12.02
2018-03-29T10:55:11.827Z,11.99
2018-03-29T10:56:11.879Z,11.90
2018-03-29T10:57:11.939Z,12.03
2018-03-29T10:58:12.003Z,12.15
2018-03-29T10:59:12.070Z,12.25
2018-03-29T11:00:12.138Z,12.03
2018-03-29T11:01:12.195Z,12.02
2018-03-29T11:02:12.259Z,12.03
2018-03-29T11:03:12.351Z,12.00
2018-03-29T11:04:12.426Z,12.13
2018-03-29T11:05:12.462Z,12.28
2018-03-29T11:06:12.518Z,12.21
2018-03-29T11:07:12.579Z,12.37
2018-03-29T11:08:12.643Z,12.57
2018-03-29T11:09:12.716Z,12.46
2018-03-29T11:10:12.775Z,12.42
2018-03-29T11:11:12.835Z,12.31
2018-03-29T11:12:12.904Z,12.31
2018-03-29T11:13:12.971Z,12.17
2018-03-29T11:14:13.031Z,12.27
2018-03-29T11:15:13.107Z,12.00
2018-03-29T11:16:13.167Z,12.04
2018-03-29T11:17:13.223Z,11.97
2018-03-29T11:18:13.287Z,11.99
2018-03-29T11:19:13.360Z,11.51
2018-03-29T11:20:13.420Z,11.40
2018-03-29T11:21:13.475Z,11.15
2018-03-29T11:22:13.543Z,11.25
2018-03-29T11:23:13.603Z,11.33
2018-03-29T11:24:13.675Z,11.51
2018-03-29T11:25:13.748Z,11.62
2018-03-29T11:26:13.800Z,11.77
2018-03-29T11:27:13.867Z,11.72
2018-03-29T11:28:13.928Z,11.73
2018-03-29T11:29:14.003Z,11.83
2018-03-29T11:30:14.064Z,11.50
2018-03-29T11:31:14.124Z,11.26
2018-03-29T11:32:14.197Z,11.14
2018-03-29T11:33:14.252Z,11.12
2018-03-29T11:34:14.317Z,10.89
2018-03-29T11:35:14.399Z,10.82
2018-03-29T11:36:14.448Z,10.64
2018-03-29T11:37:14.508Z,10.46
2018-03-29T11:38:14.576Z,10.35
2018-03-29T11:39:14.636Z,10.17
2018-03-29T11:40:14.728Z,10.20
2018-03-29T11:41:14.780Z,10.10
2018-03-29T11:42:14.828Z,10.02
2018-03-29T11:43:14.896Z,10.02
2018-03-29T11:44:14.956Z,10.09
2018-03-29T11:45:15.023Z,10.12
2018-03-29T11:46:15.504Z,10.02
2018-03-29T11:47:15.156Z,10.05
2018-03-29T11:48:15.217Z,10.10
2018-03-29T11:49:15.276Z,10.10
2018-03-29T11:50:15.341Z,10.16
2018-03-29T11:51:15.408Z,10.05
2018-03-29T11:52:15.773Z,9.94
2018-03-29T11:53:15.534Z,9.86
2018-03-29T11:54:15.596Z,9.83
2018-03-29T11:55:15.661Z,9.84
2018-03-29T11:56:15.725Z,9.80
2018-03-29T11:57:15.797Z,9.87
2018-03-29T11:58:15.860Z,9.94
2018-03-29T11:59:15.925Z,9.98
2018-03-29T12:00:15.985Z,10.01
2018-03-29T12:01:16.048Z,9.98
2018-03-29T12:02:16.265Z,10.05
2018-03-29T12:03:16.173Z,10.09
2018-03-29T12:04:16.237Z,10.16
2018-03-29T12:05:16.301Z,10.25
2018-03-29T12:06:16.367Z,10.23
2018-03-29T12:07:16.437Z,10.34
2018-03-29T12:08:16.501Z,10.46
2018-03-29T12:09:16.557Z,10.40
2018-03-29T12:10:16.621Z,10.37
2018-03-29T12:11:16.685Z,10.44
2018-03-29T12:12:16.757Z,10.33
2018-03-29T12:13:16.818Z,10.13
2018-03-29T12:14:16.882Z,9.23
2018-03-29T12:15:16.942Z,8.66
2018-03-29T12:16:17.005Z,8.42
2018-03-29T12:17:17.095Z,8.08
2018-03-29T12:18:17.130Z,7.83
2018-03-29T12:19:17.198Z,7.31
2018-03-29T12:20:17.262Z,6.89
2018-03-29T12:21:17.327Z,6.46
2018-03-29T12:22:17.395Z,6.22
2018-03-29T12:23:17.454Z,6.01
2018-03-29T12:24:17.514Z,6.04
2018-03-29T12:25:17.573Z,5.94
2018-03-29T12:26:17.638Z,5.89
2018-03-29T12:27:17.706Z,5.93
2018-03-29T12:28:17.779Z,6.01
2018-03-29T12:29:17.826Z,5.94
2018-03-29T12:30:17.890Z,5.97
2018-03-29T12:31:17.979Z,6.22
2018-03-29T12:32:18.022Z,6.26
2018-03-29T12:33:18.082Z,6.59
2018-03-29T12:34:18.138Z,6.63
2018-03-29T12:35:18.211Z,6.88
2018-03-29T12:36:18.878Z,7.10
2018-03-29T12:37:18.344Z,7.07
2018-03-29T12:38:18.394Z,7.20
2018-03-29T12:39:18.452Z,7.35
2018-03-29T12:40:18.519Z,7.47
2018-03-29T12:41:19.388Z,7.43
2018-03-29T12:42:18.647Z,7.45
2018-03-29T12:43:18.706Z,7.45
2018-03-29T12:44:18.763Z,7.43
2018-03-29T12:45:18.827Z,7.57
2018-03-29T12:46:18.907Z,7.47
2018-03-29T12:47:18.959Z,7.60
2018-03-29T12:48:19.020Z,7.47
2018-03-29T12:49:19.075Z,7.32
2018-03-29T12:50:19.158Z,7.47
2018-03-29T12:51:19.199Z,7.43
2018-03-29T12:52:19.267Z,7.42
2018-03-29T12:53:19.343Z,7.32
2018-03-29T12:54:19.390Z,7.18
2018-03-29T12:55:19.453Z,7.13
2018-03-29T12:56:19.511Z,7.14
2018-03-29T12:57:19.572Z,7.11
2018-03-29T12:58:19.645Z,7.15
2018-03-29T12:59:19.747Z,7.13
2018-03-29T13:00:19.767Z,7.06
2018-03-29T13:01:19.824Z,7.07
2018-03-29T13:02:19.884Z,7.18
2018-03-29T13:03:19.951Z,7.36
2018-03-29T13:04:20.012Z,7.61
2018-03-29T13:05:20.068Z,7.79
2018-03-29T13:06:20.127Z,7.85
2018-03-29T13:07:20.195Z,7.95
2018-03-29T13:08:20.260Z,8.06
2018-03-29T13:09:20.335Z,7.98
2018-03-29T13:10:20.376Z,8.00
2018-03-29T13:11:20.447Z,8.24
2018-03-29T13:12:20.507Z,8.27
2018-03-29T13:13:20.566Z,8.36
2018-03-29T13:14:20.636Z,8.56
2018-03-29T13:15:20.700Z,8.66